createdAt,value
2019-03-06T00:01:24.847Z,99570.72
2019-03-06T00:03:54.236Z,99584.65
2019-03-06T00:06:23.988Z,99579.05
2019-03-06T00:08:53.481Z,99586.06
2019-03-06T00:11:22.980Z,99589.41
2019-03-06T00:13:52.457Z,99586.88
2019-03-06T00:16:21.890Z,99579.91
2019-03-06T00:18:51.289Z,99584.01
2019-03-06T00:21:20.774Z,99587.73
2019-03-06T00:23:50.276Z,99589.02
2019-03-06T00:26:19.710Z,99584.03
2019-03-06T00:28:49.150Z,99583.99
2019-03-06T00:31:18.609Z,99581.35
2019-03-06T00:33:48.096Z,99564.80
2019-03-06T00:36:25.221Z,99555.64
2019-03-06T00:38:54.601Z,99556.79
2019-03-06T00:41:31.558Z,99535.20
2019-03-06T00:44:01.239Z,99548.86
2019-03-06T00:46:30.696Z,99550.44
2019-03-06T00:49:00.168Z,99533.19
2019-03-06T00:51:29.630Z,99527.44
2019-03-06T00:53:59.064Z,99533.66
2019-03-06T00:56:28.963Z,99527.45
2019-03-06T00:58:58.469Z,99518.30
2019-03-06T01:01:27.902Z,99509.83
2019-03-06T01:03:57.330Z,99503.56
2019-03-06T01:06:28.205Z,99498.51
2019-03-06T01:08:57.687Z,99497.36
2019-03-06T01:11:27.268Z,99493.48
2019-03-06T01:13:56.729Z,99486.97
2019-03-06T01:16:26.195Z,99483.56
2019-03-06T01:18:55.730Z,99478.59
2019-03-06T01:21:25.273Z,99482.25
2019-03-06T01:23:54.679Z,99489.87
2019-03-06T01:26:24.183Z,99486.47
2019-03-06T01:28:54.042Z,99485.87
2019-03-06T01:31:23.586Z,99490.89
2019-03-06T01:34:06.175Z,99487.48
2019-03-06T01:36:45.916Z,99483.23
2019-03-06T01:39:26.935Z,99480.97
2019-03-06T01:42:04.903Z,99469.55
2019-03-06T01:44:52.794Z,99460.11
2019-03-06T01:47:22.337Z,99468.71
2019-03-06T01:49:51.738Z,99470.20
2019-03-06T01:52:21.247Z,99480.50
2019-03-06T01:54:50.736Z,99486.94
2019-03-06T01:57:20.174Z,99493.23
2019-03-06T01:59:49.649Z,99501.06
2019-03-06T02:02:19.559Z,99492.84
2019-03-06T02:04:49.035Z,99482.84
2019-03-06T02:07:18.824Z,99474.59
2019-03-06T02:09:48.220Z,99475.39
2019-03-06T02:12:17.846Z,99478.11
2019-03-06T02:14:47.343Z,99480.74
2019-03-06T02:17:16.749Z,99478.66
2019-03-06T02:19:46.255Z,99484.99
2019-03-06T02:22:15.961Z,99483.75
2019-03-06T02:24:45.342Z,99489.20
2019-03-06T02:27:14.902Z,99497.51
2019-03-06T02:29:44.422Z,99505.64
2019-03-06T02:32:14.128Z,99508.84
2019-03-06T02:34:43.519Z,99510.21
2019-03-06T02:37:13.010Z,99504.89
2019-03-06T02:39:42.490Z,99506.98
2019-03-06T02:42:11.959Z,99505.27
2019-03-06T02:44:41.377Z,99493.41
2019-03-06T02:47:10.821Z,99504.28
2019-03-06T02:49:40.317Z,99498.59
2019-03-06T02:52:09.783Z,99501.77
2019-03-06T02:54:39.214Z,99502.31
2019-03-06T02:57:08.689Z,99500.06
2019-03-06T02:59:43.857Z,99502.08
2019-03-06T03:02:26.631Z,99505.05
2019-03-06T03:05:01.459Z,99506.13
2019-03-06T03:07:30.869Z,99507.91
2019-03-06T03:10:00.507Z,99514.13
2019-03-06T03:12:30.027Z,99514.81
2019-03-06T03:14:59.511Z,99514.98
2019-03-06T03:17:28.958Z,99526.17
2019-03-06T03:19:58.388Z,99522.68
2019-03-06T03:22:27.851Z,99526.30
2019-03-06T03:24:57.426Z,99520.17
2019-03-06T03:27:26.892Z,99524.25
2019-03-06T03:29:56.290Z,99520.45
2019-03-06T03:32:25.744Z,99518.98
2019-03-06T03:34:55.349Z,99524.25
2019-03-06T03:37:24.848Z,99524.34
2019-03-06T03:39:54.339Z,99528.21
2019-03-06T03:42:23.845Z,99527.88
2019-03-06T03:44:53.247Z,99533.08
2019-03-06T03:47:22.682Z,99530.36
2019-03-06T03:49:52.228Z,99541.41
2019-03-06T03:52:21.718Z,99540.56
2019-03-06T03:54:51.116Z,99540.88
2019-03-06T03:57:20.810Z,99540.02
2019-03-06T03:59:50.281Z,99535.86
2019-03-06T04:02:19.717Z,99539.59
2019-03-06T04:04:49.170Z,99542.52
2019-03-06T04:07:18.657Z,99557.56
2019-03-06T04:09:48.154Z,99557.22
2019-03-06T04:12:17.628Z,99566.13
2019-03-06T04:14:47.092Z,99572.34
2019-03-06T04:17:16.519Z,99561.61
2019-03-06T04:19:45.963Z,99570.75
2019-03-06T04:22:15.407Z,99571.95
2019-03-06T04:24:44.900Z,99578.57
2019-03-06T04:27:14.379Z,99575.81
2019-03-06T04:29:43.807Z,99577.55
2019-03-06T04:32:13.348Z,99566.09
2019-03-06T04:34:42.893Z,99564.42
2019-03-06T04:37:12.402Z,99563.09
2019-03-06T04:39:41.808Z,99569.48
2019-03-06T04:42:11.333Z,99574.16
2019-03-06T04:44:40.835Z,99576.23
2019-03-06T04:47:10.259Z,99570.48
2019-03-06T04:49:39.687Z,99563.36
2019-03-06T04:52:09.434Z,99564.31
2019-03-06T04:54:38.906Z,99561.84
2019-03-06T04:57:09.412Z,99566.83
2019-03-06T04:59:39.665Z,99573.31
2019-03-06T05:02:09.153Z,99578.68
2019-03-06T05:04:40.410Z,99582.63
2019-03-06T05:07:09.860Z,99592.05
2019-03-06T05:09:39.551Z,99595.92
2019-03-06T05:12:09.062Z,99600.27
2019-03-06T05:14:38.669Z,99600.08
2019-03-06T05:17:30.426Z,99606.23
2019-03-06T05:19:59.816Z,99606.84
2019-03-06T05:22:29.252Z,99606.59
2019-03-06T05:24:58.787Z,99610.19
2019-03-06T05:27:28.228Z,99621.98
2019-03-06T05:29:57.648Z,99619.75
2019-03-06T05:32:34.619Z,99627.25
2019-03-06T05:35:10.588Z,99628.00
2019-03-06T05:38:09.991Z,99639.83
2019-03-06T05:40:39.901Z,99651.29
2019-03-06T05:43:09.785Z,99656.06
2019-03-06T05:45:39.241Z,99652.47
2019-03-06T05:48:08.723Z,99644.75
2019-03-06T05:50:39.112Z,99642.27
2019-03-06T05:53:08.610Z,99645.95
2019-03-06T05:55:38.052Z,99642.10
2019-03-06T05:58:07.601Z,99648.69
2019-03-06T06:00:37.159Z,99644.81
2019-03-06T06:03:06.599Z,99656.08
2019-03-06T06:05:35.987Z,99661.20
2019-03-06T06:08:05.619Z,99667.66
2019-03-06T06:10:35.286Z,99664.31
2019-03-06T06:13:04.754Z,99667.91
2019-03-06T06:15:34.279Z,99661.16
2019-03-06T06:18:03.769Z,99652.09
2019-03-06T06:20:33.200Z,99646.17
2019-03-06T06:23:12.215Z,99649.50
2019-03-06T06:25:41.720Z,99658.14
2019-03-06T06:28:11.343Z,99664.11
2019-03-06T06:30:40.789Z,99677.49
2019-03-06T06:33:10.518Z,99674.77
2019-03-06T06:35:40.014Z,99688.03
2019-03-06T06:38:09.871Z,99680.73
2019-03-06T06:40:39.322Z,99676.31
2019-03-06T06:43:08.802Z,99675.84
2019-03-06T06:45:39.319Z,99674.44
2019-03-06T06:48:13.437Z,99690.67
2019-03-06T06:50:46.532Z,99687.69
2019-03-06T06:53:45.340Z,99703.45
2019-03-06T06:56:58.750Z,99705.48
2019-03-06T06:59:37.973Z,99714.77
2019-03-06T07:03:14.012Z,99698.69
2019-03-06T07:05:54.365Z,99710.08
2019-03-06T07:08:51.622Z,99712.50
2019-03-06T07:11:39.986Z,99719.61
2019-03-06T07:14:32.131Z,99723.62
2019-03-06T07:17:26.919Z,99722.95
2019-03-06T07:20:24.092Z,99716.20
2019-03-06T07:23:10.247Z,99718.03
2019-03-06T07:25:48.338Z,99718.70
2019-03-06T07:28:27.869Z,99709.97
2019-03-06T07:31:19.107Z,99707.89
2019-03-06T07:34:10.037Z,99707.23
2019-03-06T07:36:51.868Z,99711.23
2019-03-06T07:39:44.177Z,99714.99
2019-03-06T07:42:47.977Z,99713.01
2019-03-06T07:46:12.087Z,99714.62
2019-03-06T07:49:02.044Z,99691.61
2019-03-06T07:52:05.465Z,99700.80
2019-03-06T07:54:49.873Z,99699.24
2019-03-06T07:57:27.546Z,99687.08
2019-03-06T07:59:57.285Z,99681.34
2019-03-06T08:02:50.446Z,99685.70
2019-03-06T08:05:20.330Z,99683.20
2019-03-06T08:07:49.855Z,99694.05
2019-03-06T08:10:23.333Z,99687.78
2019-03-06T08:13:01.422Z,99706.53
2019-03-06T08:15:52.520Z,99715.56
2019-03-06T08:18:39.274Z,99715.41
2019-03-06T08:21:24.337Z,99717.17
2019-03-06T08:24:19.038Z,99719.55
2019-03-06T08:26:48.511Z,99721.55
2019-03-06T08:29:32.393Z,99718.69
2019-03-06T08:32:09.774Z,99716.97
2019-03-06T08:34:39.261Z,99713.11
2019-03-06T08:37:08.676Z,99713.85
2019-03-06T08:39:38.409Z,99715.70
2019-03-06T08:42:09.262Z,99716.88
2019-03-06T08:44:38.740Z,99714.02
2019-03-06T08:47:22.952Z,99724.42
2019-03-06T08:50:08.444Z,99727.70
2019-03-06T08:52:49.169Z,99725.89
2019-03-06T08:55:40.595Z,99730.02
2019-03-06T08:58:47.275Z,99738.86
2019-03-06T09:01:43.808Z,99732.73
2019-03-06T09:04:24.000Z,99735.55
2019-03-06T09:07:02.934Z,99742.45
2019-03-06T09:09:51.377Z,99742.18
2019-03-06T09:12:45.360Z,99737.21
2019-03-06T09:15:51.994Z,99737.73
2019-03-06T09:18:55.288Z,99733.59
2019-03-06T09:21:30.181Z,99735.95
2019-03-06T09:24:16.836Z,99742.64
2019-03-06T09:27:05.211Z,99731.18
2019-03-06T09:29:53.682Z,99733.66
2019-03-06T09:32:43.779Z,99739.19
2019-03-06T09:35:36.661Z,99737.70
2019-03-06T09:38:20.476Z,99743.73
2019-03-06T09:41:00.885Z,99737.59
2019-03-06T09:43:52.260Z,99732.89
2019-03-06T09:46:36.817Z,99738.56
2019-03-06T09:49:24.002Z,99744.94
2019-03-06T09:52:04.053Z,99746.97
2019-03-06T09:54:55.039Z,99742.91
2019-03-06T09:57:37.676Z,99736.50
2019-03-06T10:00:32.873Z,99737.30
2019-03-06T10:03:21.450Z,99743.66
2019-03-06T10:05:59.298Z,99743.92
2019-03-06T10:08:53.111Z,99741.44
2019-03-06T10:11:36.493Z,99745.81
2019-03-06T10:14:13.205Z,99745.62
2019-03-06T10:17:07.682Z,99740.03
2019-03-06T10:19:45.636Z,99739.97
2019-03-06T10:22:15.169Z,99735.17
2019-03-06T10:24:45.504Z,99740.59
2019-03-06T10:27:15.540Z,99746.91
2019-03-06T10:29:45.052Z,99741.41
2019-03-06T10:32:14.545Z,99734.74
2019-03-06T10:34:44.025Z,99728.70
2019-03-06T10:37:13.627Z,99722.84
2019-03-06T10:39:43.434Z,99721.27
2019-03-06T10:42:12.900Z,99711.91
2019-03-06T10:44:42.590Z,99713.59
2019-03-06T10:47:11.958Z,99707.55
2019-03-06T10:49:41.399Z,99709.23
2019-03-06T10:52:10.926Z,99715.45
2019-03-06T10:54:44.720Z,99720.77
2019-03-06T10:57:12.062Z,99710.72
2019-03-06T10:59:41.932Z,99699.39
2019-03-06T11:02:11.607Z,99703.59
2019-03-06T11:04:54.729Z,99700.92
2019-03-06T11:07:24.302Z,99709.33
2019-03-06T11:09:53.858Z,99703.53
2019-03-06T11:12:23.465Z,99698.09
2019-03-06T11:14:52.976Z,99700.74
2019-03-06T11:17:22.588Z,99699.12
2019-03-06T11:19:52.429Z,99688.24
2019-03-06T11:22:21.895Z,99689.57
2019-03-06T11:24:51.331Z,99689.46
2019-03-06T11:27:20.860Z,99687.27
2019-03-06T11:29:50.379Z,99688.33
2019-03-06T11:32:19.860Z,99688.33
2019-03-06T11:34:49.756Z,99689.66
2019-03-06T11:37:19.434Z,99689.66
2019-03-06T11:39:48.858Z,99674.39
2019-03-06T11:42:18.292Z,99676.72
2019-03-06T11:44:47.715Z,99673.42
2019-03-06T11:47:17.193Z,99681.56
2019-03-06T11:49:46.627Z,99682.77
2019-03-06T11:52:16.109Z,99673.07
2019-03-06T11:54:45.525Z,99675.98
2019-03-06T11:57:14.995Z,99661.52
2019-03-06T11:59:46.832Z,99668.20
2019-03-06T12:02:17.284Z,99660.31
2019-03-06T12:04:46.767Z,99660.31
2019-03-06T12:07:16.169Z,99653.41
2019-03-06T12:09:45.602Z,99660.31
2019-03-06T12:12:15.122Z,99651.44
2019-03-06T12:14:44.656Z,99657.97
2019-03-06T12:17:14.323Z,99649.70
2019-03-06T12:19:43.849Z,99645.66
2019-03-06T12:22:13.435Z,99645.66
2019-03-06T12:24:42.898Z,99641.97
2019-03-06T12:27:12.450Z,99643.80
2019-03-06T12:29:41.889Z,99627.17
2019-03-06T12:32:11.680Z,99627.17
2019-03-06T12:34:41.147Z,99634.08
2019-03-06T12:37:10.566Z,99630.78
2019-03-06T12:39:39.973Z,99628.33
2019-03-06T12:42:14.285Z,99634.30
2019-03-06T12:44:40.681Z,99633.50
2019-03-06T12:47:11.013Z,99633.41
2019-03-06T12:49:40.605Z,99629.73
2019-03-06T12:52:09.993Z,99630.44
2019-03-06T12:54:39.455Z,99630.11
2019-03-06T12:57:08.967Z,99623.89
2019-03-06T12:59:38.442Z,99637.23
2019-03-06T13:02:07.831Z,99635.59
2019-03-06T13:04:37.318Z,99645.44
2019-03-06T13:07:06.800Z,99637.33
2019-03-06T13:09:37.650Z,99636.16
2019-03-06T13:12:07.455Z,99636.23
2019-03-06T13:14:36.918Z,99631.42
2019-03-06T13:17:06.585Z,99628.86
2019-03-06T13:19:37.158Z,99634.13
2019-03-06T13:22:11.351Z,99634.23
2019-03-06T13:24:37.805Z,99618.09
2019-03-06T13:27:07.314Z,99622.67
2019-03-06T13:29:36.789Z,99620.46
2019-03-06T13:32:11.643Z,99616.26
2019-03-06T13:34:59.953Z,99604.91
2019-03-06T13:37:29.427Z,99611.36
2019-03-06T13:39:58.870Z,99612.15
2019-03-06T13:42:28.304Z,99606.16
2019-03-06T13:44:57.740Z,99616.20
2019-03-06T13:47:27.255Z,99611.45
2019-03-06T13:49:56.952Z,99614.02
2019-03-06T13:52:26.338Z,99617.05
2019-03-06T13:54:55.813Z,99619.33
2019-03-06T13:57:25.267Z,99617.95
2019-03-06T13:59:54.691Z,99625.55
2019-03-06T14:02:24.244Z,99633.73
2019-03-06T14:04:53.935Z,99629.52
2019-03-06T14:07:23.305Z,99639.53
2019-03-06T14:09:52.729Z,99632.66
2019-03-06T14:12:22.240Z,99625.47
2019-03-06T14:14:51.657Z,99629.14
2019-03-06T14:17:21.045Z,99618.08
2019-03-06T14:19:50.559Z,99630.00
2019-03-06T14:22:20.148Z,99636.33
2019-03-06T14:24:49.574Z,99631.50
2019-03-06T14:27:18.983Z,99625.63
2019-03-06T14:29:48.410Z,99632.70
2019-03-06T14:32:17.990Z,99628.55
2019-03-06T14:34:47.729Z,99625.09
2019-03-06T14:37:17.263Z,99624.28
2019-03-06T14:39:46.668Z,99627.42
2019-03-06T14:42:16.253Z,99635.39
2019-03-06T14:44:46.745Z,99641.20
2019-03-06T14:47:17.613Z,99629.50
2019-03-06T14:49:46.984Z,99635.28
2019-03-06T14:52:16.474Z,99642.27
2019-03-06T14:54:46.090Z,99641.59
2019-03-06T14:57:15.561Z,99647.89
2019-03-06T14:59:44.930Z,99651.34
2019-03-06T15:02:14.476Z,99669.19
2019-03-06T15:04:43.946Z,99664.59
2019-03-06T15:07:13.437Z,99655.14
2019-03-06T15:09:42.983Z,99667.55
2019-03-06T15:12:12.396Z,99667.06
2019-03-06T15:14:41.926Z,99673.05
2019-03-06T15:17:11.411Z,99677.83
2019-03-06T15:19:40.967Z,99691.38
2019-03-06T15:22:10.485Z,99679.00
2019-03-06T15:24:41.626Z,99686.86
2019-03-06T15:27:11.249Z,99685.05
2019-03-06T15:29:40.929Z,99692.23
2019-03-06T15:32:10.515Z,99691.16
2019-03-06T15:34:39.918Z,99688.27
2019-03-06T15:37:09.323Z,99695.11
2019-03-06T15:39:46.705Z,99699.98
2019-03-06T15:42:12.431Z,99699.31
2019-03-06T15:44:41.872Z,99694.20
2019-03-06T15:47:11.507Z,99703.96
2019-03-06T15:49:41.165Z,99707.75
2019-03-06T15:52:11.577Z,99711.19
2019-03-06T15:54:41.088Z,99716.54
2019-03-06T15:57:10.498Z,99722.16
2019-03-06T15:59:40.229Z,99726.52
2019-03-06T16:02:12.403Z,99724.83
2019-03-06T16:04:41.843Z,99732.84
2019-03-06T16:07:11.280Z,99740.41
2019-03-06T16:09:40.960Z,99739.45
2019-03-06T16:12:12.218Z,99738.62
2019-03-06T16:14:41.579Z,99736.22
2019-03-06T16:17:11.055Z,99736.58
2019-03-06T16:19:40.756Z,99740.94
2019-03-06T16:22:10.628Z,99749.30
2019-03-06T16:24:40.020Z,99753.14
2019-03-06T16:27:09.404Z,99765.16
2019-03-06T16:29:38.981Z,99767.29
2019-03-06T16:32:08.915Z,99764.83
2019-03-06T16:34:38.518Z,99774.14
2019-03-06T16:37:08.435Z,99786.29
2019-03-06T16:39:37.793Z,99791.57
2019-03-06T16:42:07.303Z,99798.47
2019-03-06T16:44:36.827Z,99802.30
2019-03-06T16:47:07.090Z,99806.17
2019-03-06T16:49:36.722Z,99809.17
2019-03-06T16:52:06.318Z,99810.39
2019-03-06T16:54:35.849Z,99827.54
2019-03-06T16:57:05.359Z,99832.43
2019-03-06T16:59:34.807Z,99835.03
2019-03-06T17:02:04.234Z,99837.06
2019-03-06T17:04:33.923Z,99845.54
2019-03-06T17:07:03.774Z,99852.01
2019-03-06T17:09:33.256Z,99850.64
2019-03-06T17:12:02.632Z,99858.16
2019-03-06T17:14:32.189Z,99863.33
2019-03-06T17:17:01.583Z,99867.36
2019-03-06T17:19:31.069Z,99873.46
2019-03-06T17:22:00.720Z,99875.57
2019-03-06T17:24:30.122Z,99884.19
2019-03-06T17:26:59.508Z,99883.34
2019-03-06T17:29:29.074Z,99885.01
2019-03-06T17:31:58.940Z,99889.92
2019-03-06T17:34:28.483Z,99888.84
2019-03-06T17:36:58.024Z,99895.40
2019-03-06T17:39:27.608Z,99894.24
2019-03-06T17:41:57.118Z,99905.98
2019-03-06T17:44:26.582Z,99908.38
2019-03-06T17:46:56.109Z,99905.66
2019-03-06T17:49:25.723Z,99922.41
2019-03-06T17:51:55.296Z,99920.61
2019-03-06T17:54:24.688Z,99917.18
2019-03-06T17:56:54.216Z,99922.88
2019-03-06T17:59:24.051Z,99922.67
2019-03-06T18:01:53.549Z,99929.11
2019-03-06T18:04:24.537Z,99934.30
2019-03-06T18:06:54.222Z,99936.48
2019-03-06T18:09:23.650Z,99939.55
2019-03-06T18:11:53.105Z,99945.03
2019-03-06T18:14:22.841Z,99950.13
2019-03-06T18:16:52.911Z,99951.64
2019-03-06T18:19:22.420Z,99957.14
2019-03-06T18:21:51.886Z,99959.48
2019-03-06T18:24:21.714Z,99962.61
2019-03-06T18:26:51.275Z,99962.75
2019-03-06T18:29:20.719Z,99968.21
2019-03-06T18:31:50.206Z,99970.59
2019-03-06T18:34:19.808Z,99968.45
2019-03-06T18:36:49.402Z,99970.85
2019-03-06T18:39:19.773Z,99977.38
2019-03-06T18:41:49.667Z,99983.64
2019-03-06T18:44:19.100Z,99981.52
2019-03-06T18:46:48.518Z,99988.88
2019-03-06T18:49:18.057Z,99985.05
2019-03-06T18:51:47.621Z,99992.14
2019-03-06T18:54:17.025Z,99995.97
2019-03-06T18:56:46.427Z,99996.20
2019-03-06T18:59:15.975Z,99996.27
2019-03-06T19:01:45.464Z,99998.36
2019-03-06T19:04:14.867Z,100005.70
2019-03-06T19:06:44.373Z,100002.02
2019-03-06T19:09:13.874Z,99996.73
2019-03-06T19:11:43.870Z,99995.30
2019-03-06T19:14:13.318Z,100000.05
2019-03-06T19:16:42.930Z,99999.02
2019-03-06T19:19:12.399Z,100005.27
2019-03-06T19:21:41.854Z,100005.91
2019-03-06T19:24:11.359Z,100011.20
2019-03-06T19:26:41.323Z,100017.59
2019-03-06T19:29:10.852Z,100018.28
2019-03-06T19:31:40.267Z,100015.81
2019-03-06T19:34:09.788Z,100024.05
2019-03-06T19:36:39.339Z,100028.58
2019-03-06T19:39:09.148Z,100030.89
2019-03-06T19:41:38.712Z,100029.27
2019-03-06T19:44:08.466Z,100031.05
2019-03-06T19:46:38.019Z,100033.80
2019-03-06T19:49:07.596Z,100035.33
2019-03-06T19:51:37.085Z,100040.21
2019-03-06T19:54:06.707Z,100043.87
2019-03-06T19:56:36.225Z,100046.41
2019-03-06T19:59:05.937Z,100046.31
2019-03-06T20:01:35.586Z,100050.09
2019-03-06T20:04:05.213Z,100045.82
2019-03-06T20:06:34.656Z,100045.74
2019-03-06T20:09:05.690Z,100047.61
2019-03-06T20:11:35.763Z,100048.27
2019-03-06T20:14:05.360Z,100043.83
2019-03-06T20:16:34.846Z,100045.78
2019-03-06T20:19:04.542Z,100051.66
2019-03-06T20:21:34.095Z,100046.91
2019-03-06T20:24:03.492Z,100043.26
2019-03-06T20:26:33.014Z,100052.16
2019-03-06T20:29:02.626Z,100050.02
2019-03-06T20:31:32.260Z,100061.39
2019-03-06T20:34:01.673Z,100057.06
2019-03-06T20:36:32.110Z,100058.41
2019-03-06T20:39:01.522Z,100053.41
2019-03-06T20:41:30.932Z,100055.78
2019-03-06T20:44:00.509Z,100060.35
2019-03-06T20:46:30.130Z,100068.95
2019-03-06T20:48:59.532Z,100073.03
2019-03-06T20:51:30.281Z,100075.67
2019-03-06T20:53:59.888Z,100072.64
2019-03-06T20:56:29.424Z,100074.73
2019-03-06T20:58:59.275Z,100073.56
2019-03-06T21:01:29.065Z,100080.48
2019-03-06T21:03:58.617Z,100079.62
2019-03-06T21:06:33.614Z,100078.20
2019-03-06T21:08:59.337Z,100082.55
2019-03-06T21:11:28.896Z,100073.50
2019-03-06T21:13:58.462Z,100077.92
2019-03-06T21:16:27.974Z,100089.15
2019-03-06T21:18:57.387Z,100077.91
2019-03-06T21:21:26.846Z,100074.16
2019-03-06T21:23:56.360Z,100075.09
2019-03-06T21:26:25.855Z,100071.67
2019-03-06T21:28:55.364Z,100068.42
2019-03-06T21:31:24.765Z,100066.97
2019-03-06T21:33:54.269Z,100073.09
2019-03-06T21:36:23.816Z,100070.52
2019-03-06T21:38:53.238Z,100075.61
2019-03-06T21:41:22.716Z,100083.50
2019-03-06T21:43:52.267Z,100081.77
2019-03-06T21:46:21.865Z,100079.53
2019-03-06T21:48:51.626Z,100075.55
2019-03-06T21:51:21.074Z,100074.82
2019-03-06T21:53:50.991Z,100075.47
2019-03-06T21:56:20.426Z,100077.75
2019-03-06T21:58:50.056Z,100070.53
2019-03-06T22:01:19.584Z,100072.70
2019-03-06T22:03:49.126Z,100070.07
2019-03-06T22:06:18.591Z,100074.91
2019-03-06T22:08:48.153Z,100071.22
2019-03-06T22:11:17.672Z,100073.45
2019-03-06T22:13:47.140Z,100071.88
2019-03-06T22:16:16.547Z,100072.64
2019-03-06T22:18:46.070Z,100072.77
2019-03-06T22:21:15.628Z,100070.53
2019-03-06T22:23:45.033Z,100076.04
2019-03-06T22:26:14.449Z,100073.53
2019-03-06T22:28:44.332Z,100074.56
2019-03-06T22:31:13.882Z,100076.19
2019-03-06T22:33:43.488Z,100079.61
2019-03-06T22:36:13.035Z,100071.91
2019-03-06T22:38:42.449Z,100081.09
2019-03-06T22:41:11.883Z,100083.45
2019-03-06T22:43:41.595Z,100085.99
2019-03-06T22:46:11.111Z,100081.50
2019-03-06T22:48:40.533Z,100083.05
2019-03-06T22:51:10.049Z,100085.31
2019-03-06T22:53:39.589Z,100096.72
2019-03-06T22:56:09.475Z,100111.23
2019-03-06T22:58:38.899Z,100113.72
2019-03-06T23:01:40.273Z,100129.91
2019-03-06T23:04:09.847Z,100136.38
2019-03-06T23:06:39.541Z,100134.60
2019-03-06T23:09:12.307Z,100148.58
2019-03-06T23:11:41.843Z,100150.81
2019-03-06T23:14:11.352Z,100154.42
2019-03-06T23:16:40.750Z,100149.92
2019-03-06T23:19:10.339Z,100149.13
2019-03-06T23:21:39.826Z,100149.58
2019-03-06T23:24:09.226Z,100150.09
2019-03-06T23:26:42.851Z,100153.78
2019-03-06T23:29:09.897Z,100150.86
2019-03-06T23:31:39.672Z,100149.83
2019-03-06T23:34:09.723Z,100145.59
2019-03-06T23:36:39.225Z,100145.59
2019-03-06T23:39:14.017Z,100145.77
2019-03-06T23:41:43.594Z,100157.12
2019-03-06T23:44:14.724Z,100156.64
2019-03-06T23:46:44.125Z,100163.88
2019-03-06T23:49:13.686Z,100159.48
2019-03-06T23:52:02.097Z,100166.22
2019-03-06T23:54:31.829Z,100154.65
2019-03-06T23:57:02.190Z,100152.89
2019-03-06T23:59:31.592Z,100152.66
